sensor_id;sensor_type;location;lat;lon;timestamp;pressure;altitude;pressure_sealevel;temperature;humidity
12349;BME280;5974;42.710;27.258;2023-08-31T00:01:30;99310.22;;;22.89;100.00
12349;BME280;5974;42.710;27.258;2023-08-31T00:03:59;99302.03;;;23.33;100.00
12349;BME280;5974;42.710;27.258;2023-08-31T00:06:27;99296.44;;;23.60;100.00
12349;BME280;5974;42.710;27.258;2023-08-31T00:08:53;99292.44;;;23.40;100.00
12349;BME280;5974;42.710;27.258;2023-08-31T00:11:20;99294.59;;;23.44;100.00
12349;BME280;5974;42.710;27.258;2023-08-31T00:13:47;99294.13;;;23.73;100.00
12349;BME280;5974;42.710;27.258;2023-08-31T00:16:14;99297.31;;;23.68;100.00
12349;BME280;5974;42.710;27.258;2023-08-31T00:18:41;99245.53;;;23.37;100.00
12349;BME280;5974;42.710;27.258;2023-08-31T00:21:10;99309.78;;;23.60;100.00
12349;BME280;5974;42.710;27.258;2023-08-31T00:23:37;99304.13;;;23.63;100.00
12349;BME280;5974;42.710;27.258;2023-08-31T00:26:04;99312.47;;;23.60;100.00
12349;BME280;5974;42.710;27.258;2023-08-31T00:28:32;99300.13;;;23.75;100.00
12349;BME280;5974;42.710;27.258;2023-08-31T00:31:00;99304.47;;;23.76;100.00
12349;BME280;5974;42.710;27.258;2023-08-31T00:33:29;99312.00;;;23.22;100.00
12349;BME280;5974;42.710;27.258;2023-08-31T00:35:58;99312.13;;;23.47;100.00
12349;BME280;5974;42.710;27.258;2023-08-31T00:38:28;99324.69;;;23.20;100.00
12349;BME280;5974;42.710;27.258;2023-08-31T00:40:55;99332.41;;;23.32;100.00
12349;BME280;5974;42.710;27.258;2023-08-31T00:43:21;99330.44;;;23.42;100.00
12349;BME280;5974;42.710;27.258;2023-08-31T00:45:50;99321.22;;;23.36;100.00
12349;BME280;5974;42.710;27.258;2023-08-31T00:48:19;99327.25;;;22.88;100.00
12349;BME280;5974;42.710;27.258;2023-08-31T00:50:47;99324.25;;;22.91;100.00
12349;BME280;5974;42.710;27.258;2023-08-31T00:53:15;99283.94;;;23.02;100.00
12349;BME280;5974;42.710;27.258;2023-08-31T00:55:44;99323.19;;;23.18;100.00
12349;BME280;5974;42.710;27.258;2023-08-31T00:58:11;99282.31;;;23.09;100.00
12349;BME280;5974;42.710;27.258;2023-08-31T01:00:43;99325.34;;;23.22;100.00
12349;BME280;5974;42.710;27.258;2023-08-31T01:03:18;99334.69;;;23.18;100.00
12349;BME280;5974;42.710;27.258;2023-08-31T01:05:54;99343.34;;;23.12;100.00
12349;BME280;5974;42.710;27.258;2023-08-31T01:08:29;99340.88;;;23.19;100.00
12349;BME280;5974;42.710;27.258;2023-08-31T01:11:12;99348.88;;;23.19;100.00
12349;BME280;5974;42.710;27.258;2023-08-31T01:13:41;99340.91;;;22.93;100.00
12349;BME280;5974;42.710;27.258;2023-08-31T01:16:11;99346.97;;;23.03;100.00
12349;BME280;5974;42.710;27.258;2023-08-31T01:18:39;99353.94;;;22.96;100.00
12349;BME280;5974;42.710;27.258;2023-08-31T01:21:11;99351.88;;;22.82;100.00
12349;BME280;5974;42.710;27.258;2023-08-31T01:23:57;99350.81;;;22.75;100.00
12349;BME280;5974;42.710;27.258;2023-08-31T01:26:25;99357.53;;;22.79;100.00
12349;BME280;5974;42.710;27.258;2023-08-31T01:28:52;99368.28;;;22.70;100.00
12349;BME280;5974;42.710;27.258;2023-08-31T01:31:22;99375.69;;;22.84;100.00
12349;BME280;5974;42.710;27.258;2023-08-31T01:33:49;99364.50;;;22.80;100.00
12349;BME280;5974;42.710;27.258;2023-08-31T01:36:20;99368.53;;;22.84;100.00
12349;BME280;5974;42.710;27.258;2023-08-31T01:38:58;99371.34;;;22.83;100.00
12349;BME280;5974;42.710;27.258;2023-08-31T01:41:30;99377.81;;;22.80;100.00
12349;BME280;5974;42.710;27.258;2023-08-31T01:44:00;99373.50;;;22.79;100.00
12349;BME280;5974;42.710;27.258;2023-08-31T01:46:27;99374.06;;;22.91;100.00
12349;BME280;5974;42.710;27.258;2023-08-31T01:49:05;99380.19;;;23.17;100.00
12349;BME280;5974;42.710;27.258;2023-08-31T01:51:38;99380.25;;;23.25;100.00
12349;BME280;5974;42.710;27.258;2023-08-31T01:54:06;99378.69;;;23.22;100.00
12349;BME280;5974;42.710;27.258;2023-08-31T01:56:33;99383.88;;;23.24;100.00
12349;BME280;5974;42.710;27.258;2023-08-31T01:59:05;99335.94;;;22.98;100.00
12349;BME280;5974;42.710;27.258;2023-08-31T02:01:32;99379.22;;;23.26;100.00
12349;BME280;5974;42.710;27.258;2023-08-31T02:03:59;99376.34;;;23.11;100.00
12349;BME280;5974;42.710;27.258;2023-08-31T02:06:26;99383.06;;;23.23;100.00
12349;BME280;5974;42.710;27.258;2023-08-31T02:08:53;99378.09;;;23.29;100.00
12349;BME280;5974;42.710;27.258;2023-08-31T02:11:21;99385.06;;;23.30;100.00
12349;BME280;5974;42.710;27.258;2023-08-31T02:13:48;99391.75;;;23.26;100.00
12349;BME280;5974;42.710;27.258;2023-08-31T02:16:14;99394.25;;;23.27;100.00
12349;BME280;5974;42.710;27.258;2023-08-31T02:18:41;99394.09;;;23.29;100.00
12349;BME280;5974;42.710;27.258;2023-08-31T02:21:08;99399.75;;;23.26;100.00
12349;BME280;5974;42.710;27.258;2023-08-31T02:23:35;99393.06;;;23.30;100.00
12349;BME280;5974;42.710;27.258;2023-08-31T02:26:02;99395.53;;;23.15;100.00
12349;BME280;5974;42.710;27.258;2023-08-31T02:28:30;99380.88;;;23.19;100.00
12349;BME280;5974;42.710;27.258;2023-08-31T02:30:57;99388.03;;;23.18;100.00
12349;BME280;5974;42.710;27.258;2023-08-31T02:33:25;99380.91;;;23.35;100.00
12349;BME280;5974;42.710;27.258;2023-08-31T02:35:52;99377.25;;;23.36;100.00
12349;BME280;5974;42.710;27.258;2023-08-31T02:38:19;99381.69;;;23.19;100.00
12349;BME280;5974;42.710;27.258;2023-08-31T02:40:47;99387.22;;;23.26;100.00
12349;BME280;5974;42.710;27.258;2023-08-31T02:43:23;99393.16;;;23.04;100.00
12349;BME280;5974;42.710;27.258;2023-08-31T02:46:09;99396.25;;;22.91;100.00
12349;BME280;5974;42.710;27.258;2023-08-31T02:48:36;99395.41;;;22.91;100.00
12349;BME280;5974;42.710;27.258;2023-08-31T02:51:06;99402.09;;;22.95;100.00
12349;BME280;5974;42.710;27.258;2023-08-31T02:53:33;99395.41;;;22.91;100.00
12349;BME280;5974;42.710;27.258;2023-08-31T02:56:00;99397.13;;;22.74;100.00
12349;BME280;5974;42.710;27.258;2023-08-31T02:58:27;99399.47;;;22.77;100.00
12349;BME280;5974;42.710;27.258;2023-08-31T03:00:54;99413.84;;;22.84;100.00
12349;BME280;5974;42.710;27.258;2023-08-31T03:03:25;99410.09;;;22.34;100.00
12349;BME280;5974;42.710;27.258;2023-08-31T03:05:54;99417.41;;;22.67;100.00
12349;BME280;5974;42.710;27.258;2023-08-31T03:08:38;99407.28;;;22.53;100.00
12349;BME280;5974;42.710;27.258;2023-08-31T03:11:22;99418.25;;;22.50;100.00
12349;BME280;5974;42.710;27.258;2023-08-31T03:13:49;99409.94;;;22.53;100.00
12349;BME280;5974;42.710;27.258;2023-08-31T03:16:40;99413.09;;;22.31;100.00
12349;BME280;5974;42.710;27.258;2023-08-31T03:19:09;99415.38;;;22.26;100.00
12349;BME280;5974;42.710;27.258;2023-08-31T03:21:36;99423.50;;;22.24;100.00
12349;BME280;5974;42.710;27.258;2023-08-31T03:24:06;99424.56;;;22.31;100.00
12349;BME280;5974;42.710;27.258;2023-08-31T03:26:34;99422.44;;;22.35;100.00
12349;BME280;5974;42.710;27.258;2023-08-31T03:29:01;99426.09;;;22.34;100.00
12349;BME280;5974;42.710;27.258;2023-08-31T03:31:37;99421.59;;;22.34;100.00
12349;BME280;5974;42.710;27.258;2023-08-31T03:34:04;99423.28;;;22.35;100.00
12349;BME280;5974;42.710;27.258;2023-08-31T03:36:40;99418.91;;;22.52;100.00
12349;BME280;5974;42.710;27.258;2023-08-31T03:39:07;99430.69;;;22.24;100.00
12349;BME280;5974;42.710;27.258;2023-08-31T03:41:36;99429.22;;;22.29;100.00
12349;BME280;5974;42.710;27.258;2023-08-31T03:44:04;99437.88;;;22.49;100.00
12349;BME280;5974;42.710;27.258;2023-08-31T03:46:30;99435.81;;;22.60;100.00
12349;BME280;5974;42.710;27.258;2023-08-31T03:49:01;99421.06;;;22.66;100.00
12349;BME280;5974;42.710;27.258;2023-08-31T03:51:28;99434.50;;;22.82;100.00
12349;BME280;5974;42.710;27.258;2023-08-31T03:53:56;99442.19;;;22.85;100.00
12349;BME280;5974;42.710;27.258;2023-08-31T03:56:23;99425.19;;;22.86;100.00
12349;BME280;5974;42.710;27.258;2023-08-31T03:58:50;99438.28;;;22.97;100.00
12349;BME280;5974;42.710;27.258;2023-08-31T04:01:17;99435.31;;;23.08;100.00
12349;BME280;5974;42.710;27.258;2023-08-31T04:03:44;99439.56;;;23.19;100.00
12349;BME280;5974;42.710;27.258;2023-08-31T04:06:11;99444.25;;;23.25;100.00
12349;BME280;5974;42.710;27.258;2023-08-31T04:08:45;99438.75;;;23.27;100.00
12349;BME280;5974;42.710;27.258;2023-08-31T04:11:13;99430.91;;;22.91;100.00
12349;BME280;5974;42.710;27.258;2023-08-31T04:13:40;99451.94;;;22.59;100.00
12349;BME280;5974;42.710;27.258;2023-08-31T04:16:07;99456.56;;;22.66;100.00
12349;BME280;5974;42.710;27.258;2023-08-31T04:18:33;99454.81;;;22.83;100.00
12349;BME280;5974;42.710;27.258;2023-08-31T04:21:00;99456.00;;;23.06;100.00
12349;BME280;5974;42.710;27.258;2023-08-31T04:23:29;99450.13;;;23.29;100.00
12349;BME280;5974;42.710;27.258;2023-08-31T04:26:18;99455.47;;;23.62;100.00
12349;BME280;5974;42.710;27.258;2023-08-31T04:28:45;99453.91;;;24.02;100.00
12349;BME280;5974;42.710;27.258;2023-08-31T04:31:12;99445.25;;;24.08;100.00
12349;BME280;5974;42.710;27.258;2023-08-31T04:33:39;99439.72;;;23.93;100.00
12349;BME280;5974;42.710;27.258;2023-08-31T04:36:06;99448.84;;;25.36;100.00
12349;BME280;5974;42.710;27.258;2023-08-31T04:38:34;99443.81;;;26.79;100.00
12349;BME280;5974;42.710;27.258;2023-08-31T04:41:01;99443.31;;;28.49;100.00
12349;BME280;5974;42.710;27.258;2023-08-31T04:43:30;99439.88;;;28.77;100.00
12349;BME280;5974;42.710;27.258;2023-08-31T04:45:57;99437.44;;;29.50;100.00
12349;BME280;5974;42.710;27.258;2023-08-31T04:48:24;99442.56;;;30.93;100.00
12349;BME280;5974;42.710;27.258;2023-08-31T04:50:55;99437.06;;;31.45;97.36
12349;BME280;5974;42.710;27.258;2023-08-31T04:53:22;99436.97;;;30.81;93.00
12349;BME280;5974;42.710;27.258;2023-08-31T04:55:49;99441.09;;;32.25;87.85
12349;BME280;5974;42.710;27.258;2023-08-31T04:58:16;99444.69;;;34.09;80.37
12349;BME280;5974;42.710;27.258;2023-08-31T05:00:47;99440.75;;;35.97;68.83
12349;BME280;5974;42.710;27.258;2023-08-31T05:03:14;99443.81;;;36.90;64.00
12349;BME280;5974;42.710;27.258;2023-08-31T05:05:41;99441.63;;;35.86;62.82
12349;BME280;5974;42.710;27.258;2023-08-31T05:08:13;99429.97;;;35.51;62.77
12349;BME280;5974;42.710;27.258;2023-08-31T05:10:39;99431.03;;;36.58;59.54
12349;BME280;5974;42.710;27.258;2023-08-31T05:13:09;99440.78;;;34.99;61.90
12349;BME280;5974;42.710;27.258;2023-08-31T05:15:36;99446.38;;;35.79;61.09
12349;BME280;5974;42.710;27.258;2023-08-31T05:18:08;99439.84;;;35.05;62.33
12349;BME280;5974;42.710;27.258;2023-08-31T05:20:35;99442.22;;;35.36;61.36
12349;BME280;5974;42.710;27.258;2023-08-31T05:23:02;99454.41;;;34.46;61.95
12349;BME280;5974;42.710;27.258;2023-08-31T05:25:53;99445.59;;;33.18;64.45
12349;BME280;5974;42.710;27.258;2023-08-31T05:28:33;99446.09;;;33.45;65.01
12349;BME280;5974;42.710;27.258;2023-08-31T05:31:01;99451.53;;;33.27;65.69
12349;BME280;5974;42.710;27.258;2023-08-31T05:33:30;99447.84;;;34.65;61.64
12349;BME280;5974;42.710;27.258;2023-08-31T05:36:01;99441.50;;;36.82;57.32
12349;BME280;5974;42.710;27.258;2023-08-31T05:38:50;99457.53;;;37.72;54.89
12349;BME280;5974;42.710;27.258;2023-08-31T05:41:17;99456.28;;;38.87;53.09
12349;BME280;5974;42.710;27.258;2023-08-31T05:43:44;99453.00;;;38.58;52.42
12349;BME280;5974;42.710;27.258;2023-08-31T05:46:11;99457.94;;;37.42;54.79
12349;BME280;5974;42.710;27.258;2023-08-31T05:51:24;99460.47;;;37.27;54.11
12349;BME280;5974;42.710;27.258;2023-08-31T05:54:02;99466.94;;;37.05;53.74
12349;BME280;5974;42.710;27.258;2023-08-31T05:56:29;99467.19;;;37.03;55.72
12349;BME280;5974;42.710;27.258;2023-08-31T05:58:56;99473.72;;;37.19;54.34
12349;BME280;5974;42.710;27.258;2023-08-31T06:01:23;99473.53;;;37.85;53.10
12349;BME280;5974;42.710;27.258;2023-08-31T06:04:02;99469.78;;;38.40;52.04
12349;BME280;5974;42.710;27.258;2023-08-31T06:06:31;99475.63;;;39.17;50.54
12349;BME280;5974;42.710;27.258;2023-08-31T06:08:58;99491.69;;;39.92;48.71
12349;BME280;5974;42.710;27.258;2023-08-31T06:11:25;99480.38;;;41.01;46.37
12349;BME280;5974;42.710;27.258;2023-08-31T06:13:52;99482.47;;;40.19;46.88
12349;BME280;5974;42.710;27.258;2023-08-31T06:16:19;99480.91;;;40.78;44.95
12349;BME280;5974;42.710;27.258;2023-08-31T06:18:46;99480.34;;;41.37;45.01
12349;BME280;5974;42.710;27.258;2023-08-31T06:21:14;99476.91;;;41.80;43.42
12349;BME280;5974;42.710;27.258;2023-08-31T06:23:42;99486.41;;;42.86;41.43
12349;BME280;5974;42.710;27.258;2023-08-31T06:26:12;99490.75;;;42.14;41.13
12349;BME280;5974;42.710;27.258;2023-08-31T06:28:38;99494.28;;;43.02;40.03
12349;BME280;5974;42.710;27.258;2023-08-31T06:31:05;99495.56;;;42.37;40.45
12349;BME280;5974;42.710;27.258;2023-08-31T06:33:32;99502.75;;;41.74;41.67
12349;BME280;5974;42.710;27.258;2023-08-31T06:35:59;99506.03;;;43.13;39.95
12349;BME280;5974;42.710;27.258;2023-08-31T06:38:55;99508.31;;;43.58;39.00
12349;BME280;5974;42.710;27.258;2023-08-31T06:41:23;99499.53;;;43.28;39.00
12349;BME280;5974;42.710;27.258;2023-08-31T06:43:50;99496.03;;;42.49;39.65
12349;BME280;5974;42.710;27.258;2023-08-31T06:46:18;99499.56;;;42.55;39.45
12349;BME280;5974;42.710;27.258;2023-08-31T06:48:44;99500.25;;;44.47;36.80
12349;BME280;5974;42.710;27.258;2023-08-31T06:51:20;99497.78;;;42.79;39.61
12349;BME280;5974;42.710;27.258;2023-08-31T06:53:49;99498.63;;;42.75;39.70
12349;BME280;5974;42.710;27.258;2023-08-31T06:56:16;99497.19;;;43.16;38.16
12349;BME280;5974;42.710;27.258;2023-08-31T06:58:42;99506.13;;;43.32;38.17
12349;BME280;5974;42.710;27.258;2023-08-31T07:01:13;99507.97;;;43.07;38.69
12349;BME280;5974;42.710;27.258;2023-08-31T07:03:40;99485.25;;;42.92;38.17
12349;BME280;5974;42.710;27.258;2023-08-31T07:06:07;99511.25;;;41.73;40.39
12349;BME280;5974;42.710;27.258;2023-08-31T07:08:33;99508.09;;;42.97;38.37
12349;BME280;5974;42.710;27.258;2023-08-31T07:11:03;99498.41;;;42.22;39.35
12349;BME280;5974;42.710;27.258;2023-08-31T07:13:47;99510.22;;;43.34;37.69
12349;BME280;5974;42.710;27.258;2023-08-31T07:16:14;99513.25;;;43.33;38.58
12349;BME280;5974;42.710;27.258;2023-08-31T07:18:54;99512.38;;;46.16;34.01
12349;BME280;5974;42.710;27.258;2023-08-31T07:21:21;99520.13;;;47.30;32.13
12349;BME280;5974;42.710;27.258;2023-08-31T07:23:54;99523.56;;;46.11;31.56
12349;BME280;5974;42.710;27.258;2023-08-31T07:26:31;99520.38;;;45.03;31.82
12349;BME280;5974;42.710;27.258;2023-08-31T07:29:00;99519.94;;;43.79;32.95
12349;BME280;5974;42.710;27.258;2023-08-31T07:31:30;99521.34;;;42.51;33.85
12349;BME280;5974;42.710;27.258;2023-08-31T07:33:57;99514.31;;;41.61;35.24
12349;BME280;5974;42.710;27.258;2023-08-31T07:36:24;99526.81;;;40.05;36.01
12349;BME280;5974;42.710;27.258;2023-08-31T07:38:51;99523.56;;;40.19;36.20
12349;BME280;5974;42.710;27.258;2023-08-31T07:41:18;99522.06;;;38.75;36.21
12349;BME280;5974;42.710;27.258;2023-08-31T07:43:46;99515.09;;;36.82;38.71
12349;BME280;5974;42.710;27.258;2023-08-31T07:46:14;99515.63;;;35.71;41.71
12349;BME280;5974;42.710;27.258;2023-08-31T07:48:41;99504.34;;;34.75;44.76
12349;BME280;5974;42.710;27.258;2023-08-31T07:51:08;99500.56;;;34.46;45.21
12349;BME280;5974;42.710;27.258;2023-08-31T07:53:44;99508.47;;;34.36;46.47
12349;BME280;5974;42.710;27.258;2023-08-31T07:56:11;99516.00;;;34.34;46.97
12349;BME280;5974;42.710;27.258;2023-08-31T07:58:48;99505.69;;;34.24;47.48
12349;BME280;5974;42.710;27.258;2023-08-31T08:01:23;99506.41;;;34.02;46.70
12349;BME280;5974;42.710;27.258;2023-08-31T08:03:50;99510.03;;;33.96;47.55
12349;BME280;5974;42.710;27.258;2023-08-31T08:06:17;99508.59;;;32.83;49.17
12349;BME280;5974;42.710;27.258;2023-08-31T08:08:47;99502.47;;;32.94;49.46
12349;BME280;5974;42.710;27.258;2023-08-31T08:11:13;99498.38;;;32.53;49.88
12349;BME280;5974;42.710;27.258;2023-08-31T08:13:47;99509.16;;;32.29;50.65
12349;BME280;5974;42.710;27.258;2023-08-31T08:16:14;99511.88;;;32.29;49.75
12349;BME280;5974;42.710;27.258;2023-08-31T08:18:58;99508.25;;;32.41;49.75
12349;BME280;5974;42.710;27.258;2023-08-31T08:21:27;99503.75;;;32.29;50.83
12349;BME280;5974;42.710;27.258;2023-08-31T08:23:54;99502.06;;;32.28;49.75
12349;BME280;5974;42.710;27.258;2023-08-31T08:26:21;99518.59;;;32.19;50.41
12349;BME280;5974;42.710;27.258;2023-08-31T08:28:49;99505.22;;;32.25;51.11
12349;BME280;5974;42.710;27.258;2023-08-31T08:31:16;99501.97;;;32.47;50.33
12349;BME280;5974;42.710;27.258;2023-08-31T08:33:43;99495.44;;;32.61;50.59
12349;BME280;5974;42.710;27.258;2023-08-31T08:36:10;99498.44;;;32.47;50.24
12349;BME280;5974;42.710;27.258;2023-08-31T08:38:37;99493.41;;;32.50;50.13
12349;BME280;5974;42.710;27.258;2023-08-31T08:41:07;99486.53;;;32.16;49.22
12349;BME280;5974;42.710;27.258;2023-08-31T08:43:34;99496.03;;;32.32;49.70
12349;BME280;5974;42.710;27.258;2023-08-31T08:46:09;99461.59;;;32.14;47.08
12349;BME280;5974;42.710;27.258;2023-08-31T08:48:38;99493.50;;;32.68;49.26
12349;BME280;5974;42.710;27.258;2023-08-31T08:51:20;99492.25;;;32.96;49.32
12349;BME280;5974;42.710;27.258;2023-08-31T08:53:50;99502.00;;;33.03;48.61
12349;BME280;5974;42.710;27.258;2023-08-31T08:56:17;99500.28;;;33.09;48.43
12349;BME280;5974;42.710;27.258;2023-08-31T08:58:44;99499.81;;;33.37;47.98
12349;BME280;5974;42.710;27.258;2023-08-31T09:01:16;99510.97;;;33.47;47.67
12349;BME280;5974;42.710;27.258;2023-08-31T09:03:46;99503.06;;;33.45;46.94
12349;BME280;5974;42.710;27.258;2023-08-31T09:06:19;99493.69;;;33.23;46.60
12349;BME280;5974;42.710;27.258;2023-08-31T09:08:53;99484.66;;;33.47;47.84
12349;BME280;5974;42.710;27.258;2023-08-31T09:11:20;99495.78;;;33.64;47.50
12349;BME280;5974;42.710;27.258;2023-08-31T09:13:48;99494.94;;;33.82;47.42
12349;BME280;5974;42.710;27.258;2023-08-31T09:16:24;99496.94;;;33.74;48.32
12349;BME280;5974;42.710;27.258;2023-08-31T09:18:54;99504.22;;;33.74;48.45
12349;BME280;5974;42.710;27.258;2023-08-31T09:21:21;99495.09;;;34.05;48.10
12349;BME280;5974;42.710;27.258;2023-08-31T09:23:55;99498.66;;;34.35;46.41
12349;BME280;5974;42.710;27.258;2023-08-31T09:26:23;99497.34;;;34.38;46.89
12349;BME280;5974;42.710;27.258;2023-08-31T09:28:50;99508.00;;;33.73;46.83
12349;BME280;5974;42.710;27.258;2023-08-31T09:31:18;99502.72;;;33.35;46.34
12349;BME280;5974;42.710;27.258;2023-08-31T09:34:03;99499.19;;;33.59;47.24
12349;BME280;5974;42.710;27.258;2023-08-31T09:36:49;99508.78;;;33.55;47.72
12349;BME280;5974;42.710;27.258;2023-08-31T09:39:16;99500.16;;;33.65;47.72
12349;BME280;5974;42.710;27.258;2023-08-31T09:41:55;99482.19;;;33.46;47.79
12349;BME280;5974;42.710;27.258;2023-08-31T09:44:22;99491.75;;;33.48;47.82
12349;BME280;5974;42.710;27.258;2023-08-31T09:46:50;99498.00;;;33.49;48.40
12349;BME280;5974;42.710;27.258;2023-08-31T09:49:20;99506.69;;;33.57;47.59
12349;BME280;5974;42.710;27.258;2023-08-31T09:51:49;99506.66;;;33.39;48.35
12349;BME280;5974;42.710;27.258;2023-08-31T09:54:17;99498.59;;;33.51;47.57
12349;BME280;5974;42.710;27.258;2023-08-31T09:56:47;99502.28;;;33.56;48.31
12349;BME280;5974;42.710;27.258;2023-08-31T09:59:15;99499.53;;;33.63;47.61
12349;BME280;5974;42.710;27.258;2023-08-31T10:01:45;99499.91;;;33.85;45.21
12349;BME280;5974;42.710;27.258;2023-08-31T10:04:13;99490.38;;;34.30;44.07
12349;BME280;5974;42.710;27.258;2023-08-31T10:06:55;99492.41;;;34.46;45.69
12349;BME280;5974;42.710;27.258;2023-08-31T10:09:32;99469.28;;;34.55;45.89
12349;BME280;5974;42.710;27.258;2023-08-31T10:11:59;99499.09;;;34.62;44.02
12349;BME280;5974;42.710;27.258;2023-08-31T10:14:26;99502.03;;;34.30;45.73
12349;BME280;5974;42.710;27.258;2023-08-31T10:16:55;99501.13;;;34.66;44.80
12349;BME280;5974;42.710;27.258;2023-08-31T10:19:24;99503.34;;;34.58;44.78
12349;BME280;5974;42.710;27.258;2023-08-31T10:21:51;99509.66;;;34.52;44.31
12349;BME280;5974;42.710;27.258;2023-08-31T10:27:24;99501.78;;;34.50;44.29
12349;BME280;5974;42.710;27.258;2023-08-31T10:29:51;99503.78;;;34.96;44.10
12349;BME280;5974;42.710;27.258;2023-08-31T10:32:18;99472.84;;;35.20;43.28
12349;BME280;5974;42.710;27.258;2023-08-31T10:35:04;99499.94;;;36.02;42.04
12349;BME280;5974;42.710;27.258;2023-08-31T10:37:32;99494.97;;;35.99;42.21
12349;BME280;5974;42.710;27.258;2023-08-31T10:40:19;99507.47;;;35.71;42.41
12349;BME280;5974;42.710;27.258;2023-08-31T10:42:46;99502.84;;;35.49;42.64
12349;BME280;5974;42.710;27.258;2023-08-31T10:45:22;99505.66;;;34.96;42.63
12349;BME280;5974;42.710;27.258;2023-08-31T10:47:49;99501.13;;;34.66;43.62
12349;BME280;5974;42.710;27.258;2023-08-31T10:50:17;99504.13;;;34.47;42.36
12349;BME280;5974;42.710;27.258;2023-08-31T10:52:45;99498.72;;;34.58;42.05
12349;BME280;5974;42.710;27.258;2023-08-31T10:55:13;99487.66;;;34.30;43.08
12349;BME280;5974;42.710;27.258;2023-08-31T10:57:41;99511.63;;;34.63;42.25
12349;BME280;5974;42.710;27.258;2023-08-31T11:00:08;99509.97;;;34.32;43.14
12349;BME280;5974;42.710;27.258;2023-08-31T11:02:49;99514.63;;;33.95;43.68
12349;BME280;5974;42.710;27.258;2023-08-31T11:05:17;99511.03;;;34.31;42.85
12349;BME280;5974;42.710;27.258;2023-08-31T11:07:45;99511.66;;;34.15;42.89
12349;BME280;5974;42.710;27.258;2023-08-31T11:10:27;99516.66;;;33.82;43.51
12349;BME280;5974;42.710;27.258;2023-08-31T11:12:55;99515.13;;;33.49;44.48
12349;BME280;5974;42.710;27.258;2023-08-31T11:15:24;99514.47;;;33.29;45.68
12349;BME280;5974;42.710;27.258;2023-08-31T11:17:52;99518.59;;;33.13;48.21
12349;BME280;5974;42.710;27.258;2023-08-31T11:20:20;99517.84;;;32.75;50.36
12349;BME280;5974;42.710;27.258;2023-08-31T11:22:54;99514.31;;;32.37;51.06
12349;BME280;5974;42.710;27.258;2023-08-31T11:25:22;99504.72;;;32.41;51.01
12349;BME280;5974;42.710;27.258;2023-08-31T11:27:53;99504.34;;;32.68;50.78
12349;BME280;5974;42.710;27.258;2023-08-31T11:30:27;99496.19;;;33.00;49.90
12349;BME280;5974;42.710;27.258;2023-08-31T11:32:55;99502.09;;;33.58;49.95
12349;BME280;5974;42.710;27.258;2023-08-31T11:35:22;99496.78;;;33.45;47.05
12349;BME280;5974;42.710;27.258;2023-08-31T11:37:50;99508.72;;;33.44;46.96
12349;BME280;5974;42.710;27.258;2023-08-31T11:40:18;99499.44;;;33.33;45.83
12349;BME280;5974;42.710;27.258;2023-08-31T11:42:47;99511.91;;;33.16;47.39
12349;BME280;5974;42.710;27.258;2023-08-31T11:45:17;99499.56;;;33.20;46.22
12349;BME280;5974;42.710;27.258;2023-08-31T11:47:45;99503.44;;;33.49;46.20
12349;BME280;5974;42.710;27.258;2023-08-31T11:50:14;99500.13;;;33.04;46.03
12349;BME280;5974;42.710;27.258;2023-08-31T11:52:42;99504.59;;;33.16;46.18
12349;BME280;5974;42.710;27.258;2023-08-31T11:55:13;99504.00;;;33.14;46.45
12349;BME280;5974;42.710;27.258;2023-08-31T11:57:49;99507.97;;;33.12;46.68
12349;BME280;5974;42.710;27.258;2023-08-31T12:00:17;99511.72;;;33.11;46.73
12349;BME280;5974;42.710;27.258;2023-08-31T12:02:57;99501.13;;;33.09;47.76
12349;BME280;5974;42.710;27.258;2023-08-31T12:05:26;99511.34;;;33.50;47.43
12349;BME280;5974;42.710;27.258;2023-08-31T12:07:54;99509.25;;;33.52;47.15
12349;BME280;5974;42.710;27.258;2023-08-31T12:10:23;99510.69;;;33.55;46.88
12349;BME280;5974;42.710;27.258;2023-08-31T12:12:51;99489.69;;;33.68;46.52
12349;BME280;5974;42.710;27.258;2023-08-31T12:15:31;99486.09;;;34.04;46.91
12349;BME280;5974;42.710;27.258;2023-08-31T12:17:57;99449.31;;;34.08;45.71
12349;BME280;5974;42.710;27.258;2023-08-31T12:20:32;99475.41;;;33.91;46.12
12349;BME280;5974;42.710;27.258;2023-08-31T12:23:07;99476.72;;;33.89;46.00
12349;BME280;5974;42.710;27.258;2023-08-31T12:25:35;99472.94;;;33.90;46.99
12349;BME280;5974;42.710;27.258;2023-08-31T12:28:03;99477.72;;;34.24;45.91
12349;BME280;5974;42.710;27.258;2023-08-31T12:30:41;99470.38;;;34.24;46.11
12349;BME280;5974;42.710;27.258;2023-08-31T12:33:09;99476.19;;;34.28;45.72
12349;BME280;5974;42.710;27.258;2023-08-31T12:35:36;99478.75;;;34.53;44.21
12349;BME280;5974;42.710;27.258;2023-08-31T12:38:04;99482.00;;;34.31;44.38
12349;BME280;5974;42.710;27.258;2023-08-31T12:40:38;99475.91;;;34.18;44.54
12349;BME280;5974;42.710;27.258;2023-08-31T12:43:06;99481.34;;;34.00;44.54
12349;BME280;5974;42.710;27.258;2023-08-31T12:45:35;99477.47;;;33.77;45.38
12349;BME280;5974;42.710;27.258;2023-08-31T12:48:02;99475.22;;;33.74;45.93
12349;BME280;5974;42.710;27.258;2023-08-31T12:50:30;99476.25;;;33.55;45.88
12349;BME280;5974;42.710;27.258;2023-08-31T12:52:57;99475.63;;;33.35;46.37
12349;BME280;5974;42.710;27.258;2023-08-31T12:58:04;99479.78;;;33.56;46.67
12349;BME280;5974;42.710;27.258;2023-08-31T13:00:32;99440.66;;;33.09;46.55
12349;BME280;5974;42.710;27.258;2023-08-31T13:02:59;99466.97;;;33.45;45.88
12349;BME280;5974;42.710;27.258;2023-08-31T13:05:27;99462.41;;;33.63;46.30
12349;BME280;5974;42.710;27.258;2023-08-31T13:07:54;99463.66;;;33.97;45.67
12349;BME280;5974;42.710;27.258;2023-08-31T13:10:26;99466.84;;;34.06;45.79
12349;BME280;5974;42.710;27.258;2023-08-31T13:12:53;99474.94;;;34.42;44.98
12349;BME280;5974;42.710;27.258;2023-08-31T13:15:23;99471.47;;;34.23;45.37
12349;BME280;5974;42.710;27.258;2023-08-31T13:17:52;99474.19;;;33.87;46.54
12349;BME280;5974;42.710;27.258;2023-08-31T13:20:19;99475.38;;;33.61;47.80